Terminal Aerodrome Forecast
Issued by NWS

Home | Current Version | Previous Version | Text Only | Print | Product List | Glossary On
Versions: 1 2 3 4 5 6 7 8 9 10 11 12 13 14 15 16 17 18 19 20 21 22 23 24 25 26 27 28 29 30
000
FTAK31 PANC 271722
TAFADQ
TAF
PADQ 271722Z 2718/2818 32008KT P6SM VCSH FEW015 SCT022 BKN050
      TEMPO 2718/2721 2SM -SHSN SCT015 BKN025
     FM272300 34009KT P6SM SCT050 BKN100
     FM280300 29005KT P6SM FEW050=

USA.gov is the U.S. government's official web portal to all federal, state and local government web resources and services.